createdAt,value
2023-04-02T00:00:20.668Z,101250.72
2023-04-02T00:03:01.174Z,101248.72
2023-04-02T00:05:51.481Z,101262.13
2023-04-02T00:08:24.843Z,101260.22
2023-04-02T00:10:54.194Z,101257.22
2023-04-02T00:13:26.566Z,101269.94
2023-04-02T00:15:58.119Z,101266.97
2023-04-02T00:18:27.240Z,101277.31
2023-04-02T00:21:03.021Z,101278.53
2023-04-02T00:23:31.989Z,101281.34
2023-04-02T00:25:59.586Z,101287.28
2023-04-02T00:28:27.179Z,101284.81
2023-04-02T00:30:59.276Z,101289.94
2023-04-02T00:33:29.492Z,101290.63
2023-04-02T00:35:57.756Z,101291.22
2023-04-02T00:38:28.318Z,101289.97
2023-04-02T00:40:59.202Z,101294.00
2023-04-02T00:43:28.888Z,101293.34
2023-04-02T00:45:59.199Z,101313.13
2023-04-02T00:48:40.879Z,101311.19
2023-04-02T00:51:16.729Z,101318.00
2023-04-02T00:53:47.486Z,101322.03
2023-04-02T00:56:22.776Z,101328.38
2023-04-02T00:58:53.014Z,101325.50
2023-04-02T01:01:24.368Z,101336.75
2023-04-02T01:03:59.890Z,101345.63
2023-04-02T01:06:31.553Z,101344.38
2023-04-02T01:09:13.042Z,101348.69
2023-04-02T01:12:09.654Z,101346.03
2023-04-02T01:14:56.255Z,101347.28
2023-04-02T01:17:37.119Z,101359.25
2023-04-02T01:20:26.353Z,101351.44
2023-04-02T01:23:05.679Z,101364.78
2023-04-02T01:25:42.213Z,101359.81
2023-04-02T01:28:19.551Z,101373.38
2023-04-02T01:30:53.106Z,101382.56
2023-04-02T01:33:23.421Z,101387.16
2023-04-02T01:35:56.299Z,101395.75
2023-04-02T01:38:31.848Z,101388.28
2023-04-02T01:41:03.917Z,101397.31
2023-04-02T01:43:38.185Z,101397.16
2023-04-02T01:46:28.942Z,101408.09
2023-04-02T01:48:57.789Z,101407.16
2023-04-02T01:51:31.203Z,101409.38
2023-04-02T01:54:01.985Z,101406.34
2023-04-02T01:56:31.413Z,101406.19
2023-04-02T01:59:01.195Z,101415.91
2023-04-02T02:01:36.678Z,101423.69
2023-04-02T02:04:04.869Z,101425.47
2023-04-02T02:06:32.640Z,101432.56
2023-04-02T02:09:04.781Z,101433.28
2023-04-02T02:11:36.280Z,101425.88
2023-04-02T02:14:14.152Z,101436.44
2023-04-02T02:16:44.417Z,101436.16
2023-04-02T02:19:23.188Z,101427.84
2023-04-02T02:21:54.022Z,101446.19
2023-04-02T02:24:24.893Z,101447.31
2023-04-02T02:27:09.925Z,101452.81
2023-04-02T02:29:41.298Z,101455.22
2023-04-02T02:32:12.619Z,101463.41
2023-04-02T02:34:46.849Z,101463.81
2023-04-02T02:37:18.864Z,101469.22
2023-04-02T02:39:50.670Z,101475.59
2023-04-02T02:42:24.730Z,101482.66
2023-04-02T02:44:56.070Z,101472.97
2023-04-02T02:47:29.123Z,101485.03
2023-04-02T02:50:01.260Z,101489.50
2023-04-02T02:52:32.437Z,101488.81
2023-04-02T02:55:09.828Z,101490.88
2023-04-02T02:57:50.774Z,101498.91
2023-04-02T03:00:20.296Z,101505.44
2023-04-02T03:02:50.445Z,101504.63
2023-04-02T03:05:25.047Z,101506.69
2023-04-02T03:07:58.263Z,101508.91
2023-04-02T03:10:38.012Z,101512.81
2023-04-02T03:13:12.750Z,101514.44
2023-04-02T03:15:48.868Z,101517.94
2023-04-02T03:18:29.906Z,101530.81
2023-04-02T03:21:02.633Z,101533.31
2023-04-02T03:23:36.822Z,101542.91
2023-04-02T03:26:09.578Z,101540.25
2023-04-02T03:28:47.533Z,101546.22
2023-04-02T03:31:19.897Z,101554.16
2023-04-02T03:33:55.990Z,101551.94
2023-04-02T03:36:29.383Z,101563.88
2023-04-02T03:39:06.980Z,101560.81
2023-04-02T03:41:42.262Z,101566.72
2023-04-02T03:44:22.230Z,101570.47
2023-04-02T03:46:57.397Z,101576.03
2023-04-02T03:49:34.405Z,101584.47
2023-04-02T03:52:06.627Z,101586.56
2023-04-02T03:54:36.903Z,101592.78
2023-04-02T03:57:07.907Z,101594.00
2023-04-02T03:59:42.679Z,101603.72
2023-04-02T04:02:20.610Z,101607.88
2023-04-02T04:04:51.842Z,101616.50
2023-04-02T04:07:23.763Z,101614.28
2023-04-02T04:09:53.498Z,101622.19
2023-04-02T04:12:29.588Z,101619.00
2023-04-02T04:15:05.491Z,101623.16
2023-04-02T04:17:38.343Z,101638.44
2023-04-02T04:20:21.695Z,101633.69
2023-04-02T04:22:55.657Z,101641.91
2023-04-02T04:25:30.534Z,101643.44
2023-04-02T04:28:10.533Z,101646.53
2023-04-02T04:30:50.804Z,101655.25
2023-04-02T04:33:24.148Z,101653.47
2023-04-02T04:36:00.221Z,101657.94
2023-04-02T04:38:35.584Z,101657.56
2023-04-02T04:41:13.313Z,101664.34
2023-04-02T04:43:48.147Z,101674.22
2023-04-02T04:46:22.839Z,101673.00
2023-04-02T04:48:56.727Z,101674.81
2023-04-02T04:51:30.794Z,101679.00
2023-04-02T04:53:58.849Z,101689.41
2023-04-02T04:56:31.914Z,101688.31
2023-04-02T04:59:18.733Z,101695.28
2023-04-02T05:01:54.058Z,101692.09
2023-04-02T05:04:27.147Z,101698.19
2023-04-02T05:07:01.456Z,101710.31
2023-04-02T05:09:33.544Z,101710.84
2023-04-02T05:12:09.165Z,101718.94
2023-04-02T05:14:41.683Z,101719.09
2023-04-02T05:17:16.124Z,101721.88
2023-04-02T05:19:49.444Z,101734.94
2023-04-02T05:22:27.086Z,101737.31
2023-04-02T05:25:00.714Z,101736.06
2023-04-02T05:27:37.289Z,101742.19
2023-04-02T05:30:33.554Z,101749.00
2023-04-02T05:33:05.161Z,101748.16
2023-04-02T05:35:36.393Z,101758.56
2023-04-02T05:38:06.701Z,101749.81
2023-04-02T05:40:38.584Z,101751.50
2023-04-02T05:43:10.382Z,101756.75
2023-04-02T05:45:46.097Z,101765.66
2023-04-02T05:48:19.448Z,101761.50
2023-04-02T05:50:52.165Z,101765.94
2023-04-02T05:53:32.538Z,101765.63
2023-04-02T05:56:04.189Z,101771.47
2023-04-02T05:58:39.395Z,101771.31
2023-04-02T06:01:26.099Z,101775.78
2023-04-02T06:04:00.861Z,101779.13
2023-04-02T06:06:46.909Z,101783.44
2023-04-02T06:09:24.861Z,101792.50
2023-04-02T06:11:58.794Z,101792.63
2023-04-02T06:14:26.391Z,101803.47
2023-04-02T06:16:55.452Z,101800.94
2023-04-02T06:19:29.276Z,101807.47
2023-04-02T06:22:01.556Z,101804.84
2023-04-02T06:24:33.212Z,101816.53
2023-04-02T06:27:06.944Z,101819.28
2023-04-02T06:29:39.865Z,101828.50
2023-04-02T06:32:12.332Z,101832.69
2023-04-02T06:34:43.523Z,101838.53
2023-04-02T06:37:22.012Z,101845.34
2023-04-02T06:39:54.364Z,101839.94
2023-04-02T06:42:25.914Z,101858.84
2023-04-02T06:45:18.498Z,101854.13
2023-04-02T06:47:52.627Z,101863.47
2023-04-02T06:50:44.780Z,101879.47
2023-04-02T06:53:21.917Z,101876.66
2023-04-02T06:55:55.054Z,101879.16
2023-04-02T06:58:27.159Z,101876.41
2023-04-02T07:00:55.229Z,101878.16
2023-04-02T07:03:32.909Z,101881.09
2023-04-02T07:06:14.493Z,101890.69
2023-04-02T07:08:42.127Z,101886.47
2023-04-02T07:11:14.785Z,101896.50
2023-04-02T07:13:42.410Z,101902.50
2023-04-02T07:16:16.497Z,101903.81
2023-04-02T07:18:44.537Z,101905.72
2023-04-02T07:21:12.512Z,101901.66
2023-04-02T07:23:40.340Z,101902.78
2023-04-02T07:26:09.273Z,101910.97
2023-04-02T07:28:38.174Z,101911.88
2023-04-02T07:31:16.127Z,101929.38
2023-04-02T07:33:43.659Z,101926.22
2023-04-02T07:36:15.549Z,101931.16
2023-04-02T07:38:43.534Z,101932.94
2023-04-02T07:41:11.999Z,101940.28
2023-04-02T07:43:42.066Z,101942.88
2023-04-02T07:46:10.724Z,101948.34
2023-04-02T07:48:38.326Z,101956.59
2023-04-02T07:51:06.781Z,101948.63
2023-04-02T07:53:37.718Z,101963.56
2023-04-02T07:56:07.244Z,101954.25
2023-04-02T07:58:35.188Z,101968.28
2023-04-02T08:01:04.420Z,101974.97
2023-04-02T08:03:32.832Z,101974.25
2023-04-02T08:06:00.436Z,101979.09
2023-04-02T08:08:27.958Z,101988.50
2023-04-02T08:10:55.551Z,101999.53
2023-04-02T08:13:23.174Z,101998.53
2023-04-02T08:15:50.774Z,101995.09
2023-04-02T08:18:23.247Z,102000.84
2023-04-02T08:20:50.777Z,102010.38
2023-04-02T08:23:18.347Z,102001.13
2023-04-02T08:25:46.106Z,102006.00
2023-04-02T08:28:13.789Z,102011.91
2023-04-02T08:30:41.800Z,102014.72
2023-04-02T08:33:09.532Z,102025.25
2023-04-02T08:35:38.783Z,102031.28
2023-04-02T08:38:06.943Z,102026.06
2023-04-02T08:40:38.498Z,102030.00
2023-04-02T08:43:18.802Z,102028.50
2023-04-02T08:46:04.764Z,102030.22
2023-04-02T08:48:34.484Z,102027.69
2023-04-02T08:51:05.934Z,102034.25
2023-04-02T08:53:36.734Z,102028.84
2023-04-02T08:56:17.480Z,102035.91
2023-04-02T08:58:49.502Z,102043.34
2023-04-02T09:01:28.431Z,102053.53
2023-04-02T09:03:59.751Z,102060.19
2023-04-02T09:06:29.150Z,102063.94
2023-04-02T09:08:58.427Z,102064.78
2023-04-02T09:11:32.226Z,102067.28
2023-04-02T09:14:04.148Z,102064.47
2023-04-02T09:16:41.787Z,102081.06
2023-04-02T09:19:17.264Z,102078.22
2023-04-02T09:21:53.671Z,102085.63
2023-04-02T09:24:21.312Z,102076.63
2023-04-02T09:26:48.916Z,102092.19
2023-04-02T09:29:38.902Z,102088.47
2023-04-02T09:32:22.134Z,102097.81
2023-04-02T09:34:49.710Z,102090.34
2023-04-02T09:37:22.808Z,102099.56
2023-04-02T09:39:50.397Z,102107.31
2023-04-02T09:42:34.072Z,102121.97
2023-04-02T09:45:15.463Z,102127.13
2023-04-02T09:47:43.553Z,102124.22
2023-04-02T09:50:23.573Z,102128.72
2023-04-02T09:52:52.508Z,102127.25
2023-04-02T09:55:24.188Z,102129.28
2023-04-02T09:57:53.403Z,102116.16
2023-04-02T10:03:03.617Z,102130.44
2023-04-02T10:05:40.628Z,102136.38
2023-04-02T10:08:20.744Z,102125.00
2023-04-02T10:10:51.481Z,102143.31
2023-04-02T10:13:24.493Z,102145.84
2023-04-02T10:15:56.886Z,102151.66
2023-04-02T10:18:34.513Z,102136.13
2023-04-02T10:21:05.536Z,102142.88
2023-04-02T10:23:35.437Z,102159.63
2023-04-02T10:26:20.483Z,102156.09
2023-04-02T10:29:09.300Z,102165.59
2023-04-02T10:31:45.057Z,102183.38
2023-04-02T10:34:21.187Z,102185.53
2023-04-02T10:36:54.273Z,102188.63
2023-04-02T10:39:27.312Z,102185.38
2023-04-02T10:42:00.404Z,102199.22
2023-04-02T10:44:44.572Z,102189.34
2023-04-02T10:47:31.821Z,102203.84
2023-04-02T10:50:07.672Z,102216.06
2023-04-02T10:52:40.267Z,102217.69
2023-04-02T10:55:17.541Z,102228.72
2023-04-02T10:57:45.954Z,102225.22
2023-04-02T11:00:23.304Z,102220.88
2023-04-02T11:02:56.360Z,102219.25
2023-04-02T11:05:32.226Z,102222.38
2023-04-02T11:08:07.192Z,102232.59
2023-04-02T11:10:40.377Z,102240.16
2023-04-02T11:13:14.181Z,102239.25
2023-04-02T11:15:42.288Z,102247.09
2023-04-02T11:18:23.226Z,102249.25
2023-04-02T11:21:03.153Z,102240.34
2023-04-02T11:23:33.967Z,102248.81
2023-04-02T11:26:39.188Z,102249.91
2023-04-02T11:29:25.998Z,102250.38
2023-04-02T11:32:27.481Z,102249.41
2023-04-02T11:35:07.197Z,102253.75
2023-04-02T11:37:38.148Z,102249.19
2023-04-02T11:40:52.875Z,102262.78
2023-04-02T11:43:50.760Z,102258.44
2023-04-02T11:46:40.913Z,102262.59
2023-04-02T11:49:37.593Z,102275.09
2023-04-02T11:52:19.757Z,102278.09
2023-04-02T11:54:55.876Z,102282.44
2023-04-02T11:57:32.325Z,102279.13
2023-04-02T12:00:21.126Z,102276.47
2023-04-02T12:03:03.347Z,102289.28
2023-04-02T12:05:37.855Z,102289.63
2023-04-02T12:08:22.527Z,102288.97
2023-04-02T12:11:00.389Z,102295.16
2023-04-02T12:13:51.825Z,102295.13
2023-04-02T12:16:22.768Z,102304.13
2023-04-02T12:18:54.775Z,102313.47
2023-04-02T12:21:24.234Z,102312.31
2023-04-02T12:23:55.411Z,102311.81
2023-04-02T12:26:31.880Z,102320.53
2023-04-02T12:29:29.493Z,102319.16
2023-04-02T12:31:59.870Z,102313.16
2023-04-02T12:34:29.402Z,102307.97
2023-04-02T12:37:02.552Z,102317.50
2023-04-02T12:39:30.858Z,102322.31
2023-04-02T12:41:58.559Z,102314.81
2023-04-02T12:44:28.200Z,102328.19
2023-04-02T12:46:59.061Z,102312.97
2023-04-02T12:49:35.187Z,102315.16
2023-04-02T12:52:04.655Z,102313.66
2023-04-02T12:54:38.205Z,102318.50
2023-04-02T12:57:23.225Z,102314.94
2023-04-02T12:59:50.850Z,102330.81
2023-04-02T13:02:21.767Z,102325.50
2023-04-02T13:04:50.550Z,102335.81
2023-04-02T13:07:20.712Z,102332.81
2023-04-02T13:09:50.918Z,102331.50
2023-04-02T13:12:33.121Z,102346.34
2023-04-02T13:15:03.527Z,102348.53
2023-04-02T13:17:43.942Z,102345.53
2023-04-02T13:20:32.629Z,102351.88
2023-04-02T13:23:01.686Z,102348.19
2023-04-02T13:25:31.922Z,102355.19
2023-04-02T13:27:59.849Z,102357.03
2023-04-02T13:30:29.877Z,102349.47
2023-04-02T13:32:58.792Z,102340.81
2023-04-02T13:35:27.151Z,102347.16
2023-04-02T13:37:54.792Z,102359.69
2023-04-02T13:40:22.307Z,102361.50
2023-04-02T13:42:50.846Z,102352.38
2023-04-02T13:45:25.281Z,102349.69
2023-04-02T13:47:53.171Z,102345.19
2023-04-02T13:50:24.260Z,102350.19
2023-04-02T13:52:52.874Z,102352.34
2023-04-02T13:55:22.982Z,102352.34
2023-04-02T13:57:51.015Z,102360.03
2023-04-02T14:00:19.723Z,102367.56
2023-04-02T14:02:51.570Z,102368.69
2023-04-02T14:05:32.860Z,102368.22
2023-04-02T14:08:09.903Z,102375.56
2023-04-02T14:10:52.068Z,102368.53
2023-04-02T14:13:33.301Z,102381.03
2023-04-02T14:16:15.349Z,102378.50
2023-04-02T14:19:04.030Z,102383.19
2023-04-02T14:21:46.236Z,102379.78
2023-04-02T14:24:20.133Z,102384.03
2023-04-02T14:27:05.783Z,102377.34
2023-04-02T14:29:42.167Z,102381.75
2023-04-02T14:32:15.919Z,102389.53
2023-04-02T14:34:53.780Z,102397.19
2023-04-02T14:37:32.455Z,102393.09
2023-04-02T14:40:11.252Z,102400.25
2023-04-02T14:42:43.906Z,102405.59
2023-04-02T14:45:19.810Z,102404.94
2023-04-02T14:47:50.952Z,102415.75
2023-04-02T14:50:22.804Z,102415.03
2023-04-02T14:52:54.949Z,102415.88
2023-04-02T14:55:30.438Z,102425.25
2023-04-02T14:58:02.642Z,102419.47
2023-04-02T15:00:36.192Z,102430.31
2023-04-02T15:03:10.728Z,102430.66
2023-04-02T15:05:43.441Z,102427.31
2023-04-02T15:08:21.109Z,102436.47
2023-04-02T15:10:58.715Z,102436.75
2023-04-02T15:13:35.821Z,102432.91
2023-04-02T15:16:11.631Z,102442.72
2023-04-02T15:18:39.439Z,102433.06
2023-04-02T15:21:25.451Z,102440.13
2023-04-02T15:24:03.548Z,102433.47
2023-04-02T15:26:41.894Z,102446.47
2023-04-02T15:29:28.804Z,102444.91
2023-04-02T15:32:05.020Z,102458.25
2023-04-02T15:34:36.157Z,102458.38
2023-04-02T15:37:14.118Z,102464.75
2023-04-02T15:40:03.749Z,102458.94
2023-04-02T15:42:34.246Z,102464.25
2023-04-02T15:45:26.986Z,102459.78
2023-04-02T15:48:22.386Z,102476.44
2023-04-02T15:50:59.336Z,102475.34
2023-04-02T15:53:43.494Z,102473.97
2023-04-02T15:56:35.265Z,102481.00
2023-04-02T15:59:19.426Z,102473.09
2023-04-02T16:01:56.921Z,102476.94
2023-04-02T16:04:47.212Z,102478.09
2023-04-02T16:07:30.154Z,102490.50
2023-04-02T16:10:06.842Z,102494.22
2023-04-02T16:12:37.964Z,102498.03
2023-04-02T16:15:15.895Z,102502.69
2023-04-02T16:17:47.308Z,102500.44
2023-04-02T16:20:20.259Z,102499.63
2023-04-02T16:23:00.551Z,102518.72
2023-04-02T16:25:32.321Z,102510.38
2023-04-02T16:28:11.802Z,102517.38
2023-04-02T16:30:46.744Z,102521.38
2023-04-02T16:33:29.087Z,102518.38
2023-04-02T16:36:11.010Z,102517.63
2023-04-02T16:38:54.723Z,102524.94
2023-04-02T16:41:34.829Z,102524.72
2023-04-02T16:44:20.876Z,102536.13
2023-04-02T16:46:59.103Z,102537.63
2023-04-02T16:49:36.975Z,102545.00
2023-04-02T16:52:19.003Z,102554.84
2023-04-02T16:54:59.099Z,102559.63
2023-04-02T16:57:35.420Z,102564.97
2023-04-02T17:00:17.795Z,102584.53
2023-04-02T17:02:58.410Z,102580.16
2023-04-02T17:05:32.524Z,102583.72
2023-04-02T17:08:15.727Z,102585.75
2023-04-02T17:10:51.287Z,102589.75
2023-04-02T17:13:24.991Z,102591.56
2023-04-02T17:16:03.484Z,102602.38
2023-04-02T17:18:33.508Z,102602.22
2023-04-02T17:21:05.349Z,102605.47
2023-04-02T17:23:53.227Z,102615.88
2023-04-02T17:26:26.513Z,102624.69
2023-04-02T17:28:55.814Z,102623.03
2023-04-02T17:31:26.802Z,102640.81
2023-04-02T17:33:54.361Z,102635.47
2023-04-02T17:36:32.798Z,102636.38
2023-04-02T17:39:10.503Z,102648.50
2023-04-02T17:41:43.903Z,102643.47
2023-04-02T17:44:47.356Z,102657.19
2023-04-02T17:47:21.511Z,102656.34
2023-04-02T17:50:02.322Z,102668.25
2023-04-02T17:52:35.701Z,102673.09
2023-04-02T17:55:15.494Z,102671.59
2023-04-02T17:57:54.899Z,102673.41
2023-04-02T18:00:36.256Z,102682.44
2023-04-02T18:03:20.639Z,102681.53
2023-04-02T18:05:56.134Z,102685.03
2023-04-02T18:08:31.819Z,102693.75
2023-04-02T18:11:10.400Z,102697.84
2023-04-02T18:13:42.141Z,102707.03
2023-04-02T18:16:43.480Z,102712.47
2023-04-02T18:19:18.194Z,102715.63
2023-04-02T18:21:55.203Z,102720.34
2023-04-02T18:24:32.320Z,102717.44
2023-04-02T18:27:17.298Z,102728.53
2023-04-02T18:29:56.206Z,102731.19
2023-04-02T18:32:48.084Z,102735.53
2023-04-02T18:35:23.629Z,102735.38
2023-04-02T18:38:09.252Z,102734.34
2023-04-02T18:40:44.007Z,102738.44
2023-04-02T18:43:26.271Z,102742.50
2023-04-02T18:45:59.222Z,102750.94
2023-04-02T18:48:41.169Z,102751.84
2023-04-02T18:51:16.392Z,102752.59
2023-04-02T18:53:44.362Z,102763.44
2023-04-02T18:56:15.043Z,102763.69
2023-04-02T18:58:51.555Z,102772.69
2023-04-02T19:01:23.289Z,102773.53
2023-04-02T19:03:53.846Z,102776.44
2023-04-02T19:06:27.704Z,102777.94
2023-04-02T19:09:00.553Z,102771.28
2023-04-02T19:11:30.902Z,102778.06
2023-04-02T19:14:01.419Z,102776.38
2023-04-02T19:16:55.309Z,102780.44
2023-04-02T19:19:26.355Z,102784.56
2023-04-02T19:22:21.685Z,102786.50
2023-04-02T19:25:17.568Z,102789.88
2023-04-02T19:28:01.875Z,102793.25
2023-04-02T19:30:39.306Z,102788.78
2023-04-02T19:33:18.231Z,102798.28
2023-04-02T19:35:48.774Z,102804.66
2023-04-02T19:38:34.016Z,102800.69
2023-04-02T19:41:08.258Z,102803.22
2023-04-02T19:43:35.926Z,102805.50
2023-04-02T19:46:03.920Z,102811.41
2023-04-02T19:48:42.199Z,102809.09
2023-04-02T19:51:09.858Z,102817.91
2023-04-02T19:53:38.758Z,102817.88
2023-04-02T19:56:06.392Z,102818.72
2023-04-02T19:58:37.011Z,102816.34
2023-04-02T20:01:04.853Z,102814.50
2023-04-02T20:03:32.483Z,102815.56
2023-04-02T20:06:00.512Z,102823.97
2023-04-02T20:08:28.776Z,102826.13
2023-04-02T20:10:59.873Z,102824.81
2023-04-02T20:13:27.408Z,102838.28
2023-04-02T20:15:55.059Z,102826.84
2023-04-02T20:18:22.581Z,102832.38
2023-04-02T20:20:50.255Z,102840.53
2023-04-02T20:23:17.836Z,102838.00
2023-04-02T20:25:46.761Z,102850.88
2023-04-02T20:28:15.715Z,102850.16
2023-04-02T20:30:43.483Z,102848.44
2023-04-02T20:33:11.352Z,102855.75
2023-04-02T20:35:38.942Z,102856.84
2023-04-02T20:38:08.119Z,102859.44
2023-04-02T20:40:36.428Z,102853.44
2023-04-02T20:43:04.335Z,102853.44
2023-04-02T20:45:33.377Z,102865.22
2023-04-02T20:48:00.967Z,102869.31
2023-04-02T20:50:28.917Z,102878.41
2023-04-02T20:52:58.783Z,102879.97
2023-04-02T20:55:26.381Z,102880.56
2023-04-02T20:57:54.570Z,102887.84
2023-04-02T21:00:22.659Z,102892.78
2023-04-02T21:02:51.557Z,102884.41
2023-04-02T21:05:19.116Z,102892.06
2023-04-02T21:07:48.505Z,102893.50
2023-04-02T21:10:16.218Z,102893.75
2023-04-02T21:12:43.757Z,102899.09
2023-04-02T21:15:13.279Z,102899.94
2023-04-02T21:17:40.993Z,102903.25
2023-04-02T21:20:12.503Z,102900.94
2023-04-02T21:22:40.328Z,102898.44
2023-04-02T21:25:08.698Z,102900.78
2023-04-02T21:27:36.267Z,102908.59
2023-04-02T21:30:04.726Z,102914.38
2023-04-02T21:32:32.906Z,102915.34
2023-04-02T21:35:00.545Z,102927.09
2023-04-02T21:37:29.394Z,102927.38
2023-04-02T21:39:56.891Z,102921.72
2023-04-02T21:42:24.467Z,102919.91
2023-04-02T21:44:52.053Z,102923.94
2023-04-02T21:47:19.710Z,102922.38
2023-04-02T21:49:47.268Z,102926.91
2023-04-02T21:52:14.798Z,102930.22
2023-04-02T21:54:44.700Z,102922.53
2023-04-02T21:57:12.365Z,102921.53
2023-04-02T21:59:39.912Z,102929.19
2023-04-02T22:02:07.480Z,102928.13
2023-04-02T22:04:35.041Z,102931.53
2023-04-02T22:07:02.526Z,102932.59
2023-04-02T22:09:30.314Z,102942.22
2023-04-02T22:12:01.704Z,102943.38
2023-04-02T22:14:29.471Z,102939.25
2023-04-02T22:16:58.716Z,102947.19
2023-04-02T22:19:27.456Z,102946.13
2023-04-02T22:21:56.219Z,102945.25
2023-04-02T22:24:24.789Z,102950.75
2023-04-02T22:26:52.445Z,102947.81
2023-04-02T22:29:21.487Z,102954.53
2023-04-02T22:31:49.084Z,102952.13
2023-04-02T22:34:16.652Z,102960.59
2023-04-02T22:36:44.206Z,102957.31
2023-04-02T22:39:12.302Z,102961.41
2023-04-02T22:41:40.333Z,102954.75
2023-04-02T22:44:07.933Z,102957.31
2023-04-02T22:46:37.111Z,102963.09
2023-04-02T22:49:04.779Z,102955.84
2023-04-02T22:51:32.351Z,102961.75
2023-04-02T22:53:59.931Z,102969.97
2023-04-02T22:56:32.053Z,102963.22
2023-04-02T22:58:59.917Z,102974.63
2023-04-02T23:01:29.670Z,102969.78
2023-04-02T23:03:58.615Z,102972.19
2023-04-02T23:06:26.914Z,102977.97
2023-04-02T23:08:54.536Z,102980.75
2023-04-02T23:11:24.120Z,102984.22
2023-04-02T23:13:53.587Z,102990.03
2023-04-02T23:16:22.515Z,102989.38
2023-04-02T23:18:50.266Z,102995.94
2023-04-02T23:21:20.836Z,102998.03
2023-04-02T23:23:49.228Z,102996.66
2023-04-02T23:26:18.965Z,103002.56
2023-04-02T23:28:46.884Z,103008.19
2023-04-02T23:31:18.162Z,103003.97
2023-04-02T23:33:46.184Z,103002.69
2023-04-02T23:36:24.821Z,103009.16
2023-04-02T23:38:55.073Z,103001.28
2023-04-02T23:41:24.274Z,103009.19
2023-04-02T23:43:52.037Z,103006.22
2023-04-02T23:46:19.666Z,103016.78
2023-04-02T23:48:47.589Z,103014.88
2023-04-02T23:51:15.337Z,103024.41
2023-04-02T23:53:44.259Z,103022.50
2023-04-02T23:56:12.108Z,103023.34
2023-04-02T23:58:39.723Z,103026.72
